Terminal Aerodrome Forecast
Issued by NWS

Home | Current Version | Previous Version | Text Only | Print | Product List | Glossary On
Versions: 1 2 3 4 5 6 7 8 9 10 11 12 13 14 15
777
FTUS42 TJSJ 241140
TAFJBQ
TAF
TJBQ 241140Z 2412/2512 00000KT P6SM FEW060
     FM241300 VRB06KT P6SM SCT025
     FM242300 00000KT P6SM SKC
      AMD NOT SKED 2502/2511=

USA.gov is the U.S. government's official web portal to all federal, state and local government web resources and services.